METAR Data
IDs: Format: Raw Decoded Include TAF

Data at: 0628 UTC 03 Jul 2022

METAR for:KJYO (Leesburg/Executive A, VA, US)
Text:KJYO 030615Z AUTO 00000KT 10SM SCT100 22/22 A3000 RMK AO2 PWINO
Temperature: 22.0°C ( 72°F)
Dewpoint: 22.0°C ( 72°F) [RH = 100%]
Pressure (altimeter):30.00 inches Hg (1016.0 mb)
Winds:calm
Visibility:10 or more sm (16+ km)
Ceiling:at least 12,000 feet AGL
Clouds: scattered clouds at 10000 feet AGL
QC Flag:automated observation with no human augmentation

TAF for:KJYO (Leesburg/Executive A, VA, US)
Text:No data found